createdAt,value
2018-06-01T00:01:45.888Z,22.58
2018-06-01T00:04:12.596Z,22.57
2018-06-01T00:06:39.226Z,22.55
2018-06-01T00:09:06.054Z,22.46
2018-06-01T00:11:32.698Z,22.33
2018-06-01T00:13:59.380Z,22.34
2018-06-01T00:16:26.015Z,22.11
2018-06-01T00:18:52.636Z,22.04
2018-06-01T00:21:19.348Z,22.03
2018-06-01T00:23:46.098Z,22.13
2018-06-01T00:26:12.734Z,22.12
2018-06-01T00:28:39.384Z,22.15
2018-06-01T00:31:06.166Z,22.21
2018-06-01T00:33:32.842Z,22.27
2018-06-01T00:35:59.685Z,22.24
2018-06-01T00:38:26.358Z,22.17
2018-06-01T00:40:53.149Z,22.10
2018-06-01T00:43:20.511Z,22.26
2018-06-01T00:45:47.890Z,22.17
2018-06-01T00:48:14.648Z,22.06
2018-06-01T00:50:41.272Z,22.03
2018-06-01T00:53:07.928Z,22.11
2018-06-01T00:55:34.540Z,22.05
2018-06-01T00:58:01.260Z,22.11
2018-06-01T01:00:28.711Z,22.15
2018-06-01T01:02:56.104Z,22.10
2018-06-01T01:05:23.015Z,22.01
2018-06-01T01:07:50.420Z,21.95
2018-06-01T01:10:17.074Z,21.87
2018-06-01T01:12:43.836Z,21.89
2018-06-01T01:15:10.545Z,21.93
2018-06-01T01:17:37.165Z,21.93
2018-06-01T01:20:03.817Z,21.88
2018-06-01T01:22:30.443Z,22.01
2018-06-01T01:24:57.089Z,22.03
2018-06-01T01:27:23.726Z,21.99
2018-06-01T01:29:50.394Z,21.93
2018-06-01T01:32:17.155Z,21.98
2018-06-01T01:34:44.007Z,22.02
2018-06-01T01:37:11.553Z,21.93
2018-06-01T01:39:38.168Z,21.90
2018-06-01T01:42:04.820Z,21.90
2018-06-01T01:44:31.463Z,21.86
2018-06-01T01:46:59.620Z,21.84
2018-06-01T01:49:26.271Z,21.87
2018-06-01T01:51:52.948Z,21.92
2018-06-01T01:54:20.312Z,22.02
2018-06-01T01:56:46.969Z,22.00
2018-06-01T01:59:13.656Z,21.99
2018-06-01T02:01:40.312Z,21.98
2018-06-01T02:04:07.678Z,21.91
2018-06-01T02:06:35.044Z,21.91
2018-06-01T02:09:01.706Z,21.96
2018-06-01T02:11:28.389Z,21.94
2018-06-01T02:13:55.091Z,21.88
2018-06-01T02:16:21.857Z,21.83
2018-06-01T02:18:48.512Z,21.88
2018-06-01T02:21:15.205Z,21.92
2018-06-01T02:23:41.870Z,21.91
2018-06-01T02:26:08.512Z,22.00
2018-06-01T02:28:35.149Z,22.02
2018-06-01T02:31:01.827Z,22.00
2018-06-01T02:33:29.298Z,22.06
2018-06-01T02:35:55.913Z,22.01
2018-06-01T02:38:23.429Z,21.96
2018-06-01T02:40:50.073Z,21.92
2018-06-01T02:43:16.801Z,21.88
2018-06-01T02:45:43.439Z,21.82
2018-06-01T02:48:10.069Z,21.76
2018-06-01T02:50:36.718Z,21.79
2018-06-01T02:53:03.321Z,21.71
2018-06-01T02:55:30.011Z,21.72
2018-06-01T02:57:56.684Z,21.77
2018-06-01T03:00:23.343Z,21.72
2018-06-01T03:02:50.011Z,21.86
2018-06-01T03:05:16.650Z,21.87
2018-06-01T03:07:43.339Z,21.92
2018-06-01T03:10:10.712Z,21.74
2018-06-01T03:12:37.498Z,21.72
2018-06-01T03:15:04.174Z,21.83
2018-06-01T03:17:31.752Z,21.85
2018-06-01T03:19:58.470Z,21.69
2018-06-01T03:22:25.860Z,21.60
2018-06-01T03:24:52.546Z,21.62
2018-06-01T03:27:19.209Z,21.61
2018-06-01T03:29:46.612Z,21.62
2018-06-01T03:32:13.261Z,21.53
2018-06-01T03:34:39.881Z,21.56
2018-06-01T03:37:06.541Z,21.48
2018-06-01T03:39:33.247Z,21.50
2018-06-01T03:42:00.079Z,21.55
2018-06-01T03:44:27.512Z,21.56
2018-06-01T03:46:54.131Z,21.67
2018-06-01T03:49:20.801Z,21.78
2018-06-01T03:51:48.177Z,21.82
2018-06-01T03:54:14.822Z,21.88
2018-06-01T03:56:41.470Z,21.74
2018-06-01T03:59:08.110Z,21.86
2018-06-01T04:01:34.792Z,21.71
2018-06-01T04:04:02.953Z,21.65
2018-06-01T04:06:29.610Z,21.63
2018-06-01T04:08:56.255Z,21.50
2018-06-01T04:11:22.887Z,21.56
2018-06-01T04:13:49.574Z,21.52
2018-06-01T04:16:16.196Z,21.61
2018-06-01T04:18:43.626Z,21.69
2018-06-01T04:23:35.426Z,21.77
2018-06-01T04:26:02.051Z,21.71
2018-06-01T04:28:28.754Z,21.77
2018-06-01T04:30:55.384Z,21.58
2018-06-01T04:33:22.353Z,21.47
2018-06-01T04:35:50.715Z,21.47
2018-06-01T04:38:17.480Z,21.57
2018-06-01T04:40:44.125Z,21.65
2018-06-01T04:43:10.799Z,21.68
2018-06-01T04:45:37.653Z,21.70
2018-06-01T04:48:04.280Z,21.58
2018-06-01T04:50:31.011Z,21.54
2018-06-01T04:52:58.448Z,21.63
2018-06-01T04:55:25.138Z,21.61
2018-06-01T04:57:52.013Z,21.64
2018-06-01T05:00:19.397Z,21.66
2018-06-01T05:02:46.220Z,21.72
2018-06-01T05:05:12.878Z,21.80
2018-06-01T05:07:39.550Z,21.88
2018-06-01T05:10:06.240Z,22.08
2018-06-01T05:12:32.858Z,22.21
2018-06-01T05:15:00.258Z,22.42
2018-06-01T05:17:26.899Z,22.56
2018-06-01T05:19:53.575Z,22.60
2018-06-01T05:22:20.219Z,22.61
2018-06-01T05:24:46.907Z,22.67
2018-06-01T05:27:13.542Z,22.70
2018-06-01T05:29:40.395Z,22.64
2018-06-01T05:32:07.176Z,22.61
2018-06-01T05:34:33.858Z,22.51
2018-06-01T05:37:00.528Z,22.43
2018-06-01T05:39:27.167Z,22.35
2018-06-01T05:41:53.900Z,22.35
2018-06-01T05:44:20.558Z,22.31
2018-06-01T05:46:47.273Z,22.33
2018-06-01T05:49:13.930Z,22.29
2018-06-01T05:51:40.621Z,22.26
2018-06-01T05:54:07.987Z,22.22
2018-06-01T05:56:34.607Z,22.19
2018-06-01T05:59:02.185Z,22.17
2018-06-01T06:01:29.003Z,22.09
2018-06-01T06:03:56.380Z,21.98
2018-06-01T06:06:23.777Z,21.92
2018-06-01T06:08:50.415Z,21.71
2018-06-01T06:11:17.065Z,21.59
2018-06-01T06:13:43.729Z,21.61
2018-06-01T06:16:11.113Z,21.73
2018-06-01T06:18:37.795Z,21.68
2018-06-01T06:21:04.482Z,21.69
2018-06-01T06:23:31.855Z,21.75
2018-06-01T06:25:58.510Z,21.73
2018-06-01T06:28:25.290Z,21.77
2018-06-01T06:30:51.965Z,21.88
2018-06-01T06:33:19.368Z,21.82
2018-06-01T06:35:46.150Z,21.74
2018-06-01T06:38:12.842Z,21.84
2018-06-01T06:40:39.481Z,21.81
2018-06-01T06:43:06.152Z,21.84
2018-06-01T06:45:32.833Z,21.66
2018-06-01T06:47:59.469Z,21.67
2018-06-01T06:50:26.211Z,21.81
2018-06-01T06:52:52.857Z,21.90
2018-06-01T06:55:19.527Z,21.98
2018-06-01T06:57:46.339Z,22.10
2018-06-01T07:00:13.002Z,22.32
2018-06-01T07:02:40.542Z,22.24
2018-06-01T07:05:07.939Z,22.34
2018-06-01T07:07:34.649Z,22.50
2018-06-01T07:10:01.304Z,22.59
2018-06-01T07:12:27.937Z,22.50
2018-06-01T07:14:54.589Z,22.56
2018-06-01T07:17:22.122Z,22.59
2018-06-01T07:19:48.778Z,22.36
2018-06-01T07:22:15.446Z,22.47
2018-06-01T07:24:42.098Z,22.28
2018-06-01T07:27:08.758Z,22.26
2018-06-01T07:29:35.423Z,22.39
2018-06-01T07:32:02.068Z,22.49
2018-06-01T07:34:28.830Z,22.17
2018-06-01T07:36:55.507Z,22.07
2018-06-01T07:39:22.152Z,21.79
2018-06-01T07:41:48.847Z,21.76
2018-06-01T07:44:15.734Z,21.54
2018-06-01T07:46:42.358Z,21.42
2018-06-01T07:49:09.107Z,21.22
2018-06-01T07:51:35.761Z,21.02
2018-06-01T07:54:02.562Z,20.85
2018-06-01T07:56:29.981Z,20.77
2018-06-01T07:58:56.656Z,20.78
2018-06-01T08:01:23.317Z,20.85
2018-06-01T08:03:50.725Z,20.78
2018-06-01T08:06:17.408Z,20.59
2018-06-01T08:08:44.758Z,20.43
2018-06-01T08:11:14.177Z,20.45
2018-06-01T08:13:40.854Z,20.48
2018-06-01T08:16:07.513Z,20.59
2018-06-01T08:18:35.047Z,20.65
2018-06-01T08:21:01.699Z,20.79
2018-06-01T08:23:28.356Z,20.86
2018-06-01T08:25:55.063Z,20.94
2018-06-01T08:28:21.702Z,21.16
2018-06-01T08:30:48.358Z,21.19
2018-06-01T08:33:15.087Z,21.15
2018-06-01T08:35:41.752Z,21.19
2018-06-01T08:38:08.453Z,21.27
2018-06-01T08:40:35.206Z,21.35
2018-06-01T08:43:01.860Z,21.45
2018-06-01T08:45:28.639Z,21.48
2018-06-01T08:47:56.044Z,21.54
2018-06-01T08:50:22.714Z,21.57
2018-06-01T08:52:49.367Z,21.60
2018-06-01T08:55:16.767Z,21.58
2018-06-01T08:57:43.483Z,21.62
2018-06-01T09:00:10.121Z,21.60
2018-06-01T09:02:36.813Z,21.56
2018-06-01T09:05:03.476Z,21.56
2018-06-01T09:07:30.933Z,21.41
2018-06-01T09:09:58.344Z,21.43
2018-06-01T09:12:25.029Z,21.33
2018-06-01T09:14:52.673Z,21.19
2018-06-01T09:17:19.379Z,21.19
2018-06-01T09:19:46.044Z,21.22
2018-06-01T09:22:12.791Z,21.24
2018-06-01T09:24:39.466Z,21.28
2018-06-01T09:27:06.867Z,21.34
2018-06-01T09:29:33.537Z,21.45
2018-06-01T09:32:00.204Z,21.44
2018-06-01T09:34:27.803Z,21.48
2018-06-01T09:36:54.452Z,21.62
2018-06-01T09:39:21.136Z,21.80
2018-06-01T09:41:47.843Z,21.92
2018-06-01T09:44:16.482Z,22.11
2018-06-01T09:46:43.182Z,22.30
2018-06-01T09:49:09.822Z,22.53
2018-06-01T09:51:36.517Z,22.61
2018-06-01T09:54:03.176Z,22.71
2018-06-01T09:56:29.862Z,22.75
2018-06-01T09:58:57.237Z,22.77
2018-06-01T10:01:27.948Z,22.83
2018-06-01T10:03:56.172Z,22.90
2018-06-01T10:06:22.884Z,22.96
2018-06-01T10:08:49.747Z,22.96
2018-06-01T10:11:16.543Z,22.94
2018-06-01T10:13:43.953Z,23.10
2018-06-01T10:16:10.607Z,23.26
2018-06-01T10:18:37.327Z,23.34
2018-06-01T10:21:03.949Z,23.34
2018-06-01T10:23:30.675Z,23.28
2018-06-01T10:25:58.200Z,23.22
2018-06-01T10:28:24.897Z,22.94
2018-06-01T10:30:51.555Z,22.90
2018-06-01T10:33:18.425Z,22.91
2018-06-01T10:35:46.552Z,22.84
2018-06-01T10:38:13.408Z,23.06
2018-06-01T10:40:40.070Z,23.16
2018-06-01T10:43:06.852Z,23.24
2018-06-01T10:45:34.316Z,23.49
2018-06-01T10:48:01.173Z,23.80
2018-06-01T10:50:27.785Z,23.80
2018-06-01T10:52:55.199Z,24.10
2018-06-01T10:55:21.886Z,24.31
2018-06-01T10:57:49.308Z,24.50
2018-06-01T11:00:16.022Z,24.76
2018-06-01T11:02:42.703Z,24.86
2018-06-01T11:05:10.121Z,25.06
2018-06-01T11:07:36.848Z,25.05
2018-06-01T11:10:03.526Z,25.14
2018-06-01T11:12:30.285Z,25.26
2018-06-01T11:14:57.731Z,25.34
2018-06-01T11:17:25.120Z,25.36
2018-06-01T11:19:51.960Z,25.35
2018-06-01T11:22:18.605Z,25.14
2018-06-01T11:24:45.250Z,25.20
2018-06-01T11:27:11.897Z,25.25
2018-06-01T11:29:38.570Z,25.28
2018-06-01T11:32:05.385Z,25.24
2018-06-01T11:34:32.053Z,25.09
2018-06-01T11:36:58.729Z,24.97
2018-06-01T11:39:26.139Z,25.31
2018-06-01T11:41:52.807Z,25.56
2018-06-01T11:44:20.236Z,25.93
2018-06-01T11:46:46.873Z,26.06
2018-06-01T11:49:13.551Z,26.03
2018-06-01T11:51:41.079Z,26.09
2018-06-01T11:54:07.798Z,25.88
2018-06-01T11:56:34.441Z,25.99
2018-06-01T11:59:01.106Z,25.94
2018-06-01T12:01:27.769Z,25.73
2018-06-01T12:03:55.200Z,25.18
2018-06-01T12:06:21.926Z,25.14
2018-06-01T12:08:48.672Z,24.88
2018-06-01T12:11:15.342Z,25.10
2018-06-01T12:13:42.009Z,24.93
2018-06-01T12:16:08.658Z,25.17
2018-06-01T12:18:35.376Z,25.05
2018-06-01T12:21:02.038Z,24.64
2018-06-01T12:23:28.706Z,24.93
2018-06-01T12:25:55.412Z,25.35
2018-06-01T12:28:22.103Z,25.29
2018-06-01T12:30:48.747Z,25.26
2018-06-01T12:33:15.437Z,24.85
2018-06-01T12:35:42.139Z,24.32
2018-06-01T12:38:09.537Z,24.44
2018-06-01T12:40:36.172Z,24.64
2018-06-01T12:43:02.820Z,24.87
2018-06-01T12:45:30.481Z,24.55
2018-06-01T12:47:57.372Z,24.17
2018-06-01T12:50:25.030Z,24.20
2018-06-01T12:52:51.729Z,24.37
2018-06-01T12:55:18.390Z,24.37
2018-06-01T12:57:45.123Z,24.50
2018-06-01T13:00:11.933Z,24.57
2018-06-01T13:02:38.858Z,24.56
2018-06-01T13:05:06.582Z,24.58
2018-06-01T13:07:33.249Z,24.43
2018-06-01T13:10:00.693Z,24.32
2018-06-01T13:12:27.343Z,24.22
2018-06-01T13:14:54.745Z,24.08
2018-06-01T13:17:21.462Z,24.00
2018-06-01T13:19:48.082Z,23.84
2018-06-01T13:22:15.504Z,23.81
2018-06-01T13:24:42.250Z,23.88
2018-06-01T13:27:08.921Z,24.01
2018-06-01T13:29:36.311Z,24.47
2018-06-01T13:32:02.947Z,24.64
2018-06-01T13:34:29.614Z,25.00
2018-06-01T13:36:56.273Z,25.24
2018-06-01T13:39:22.985Z,25.42
2018-06-01T13:41:49.620Z,25.60
2018-06-01T13:44:16.363Z,25.73
2018-06-01T13:46:43.055Z,25.76
2018-06-01T13:49:09.750Z,26.09
2018-06-01T13:51:36.429Z,26.32
2018-06-01T13:54:03.836Z,26.23
2018-06-01T13:56:30.489Z,26.14
2018-06-01T14:01:30.607Z,25.46
2018-06-01T14:03:57.301Z,25.31
2018-06-01T14:06:24.818Z,24.83
2018-06-01T14:08:51.600Z,24.60
2018-06-01T14:11:19.048Z,24.60
2018-06-01T14:13:45.734Z,24.51
2018-06-01T14:16:12.421Z,24.40
2018-06-01T14:18:39.200Z,24.41
2018-06-01T14:21:06.736Z,24.30
2018-06-01T14:23:33.393Z,24.15
2018-06-01T14:26:00.757Z,24.29
2018-06-01T14:28:27.387Z,24.24
2018-06-01T14:30:54.761Z,24.31
2018-06-01T14:33:21.486Z,24.38
2018-06-01T14:35:48.935Z,24.50
2018-06-01T14:38:16.389Z,24.59
2018-06-01T14:40:43.819Z,24.47
2018-06-01T14:43:10.460Z,24.47
2018-06-01T14:45:37.068Z,24.45
2018-06-01T14:48:03.701Z,24.04
2018-06-01T14:50:30.328Z,23.67
2018-06-01T14:52:57.042Z,23.56
2018-06-01T14:55:24.410Z,23.41
2018-06-01T14:57:51.043Z,23.34
2018-06-01T15:00:17.692Z,23.10
2018-06-01T15:02:44.328Z,23.09
2018-06-01T15:05:10.968Z,22.78
2018-06-01T15:07:37.714Z,22.67
2018-06-01T15:10:04.408Z,22.53
2018-06-01T15:12:31.074Z,22.34
2018-06-01T15:14:58.426Z,21.92
2018-06-01T15:17:25.788Z,21.88
2018-06-01T15:19:52.445Z,21.80
2018-06-01T15:22:19.091Z,21.82
2018-06-01T15:24:46.672Z,21.70
2018-06-01T15:27:13.340Z,21.72
2018-06-01T15:29:40.892Z,21.80
2018-06-01T15:32:07.683Z,21.77
2018-06-01T15:34:34.371Z,21.79
2018-06-01T15:37:01.015Z,21.91
2018-06-01T15:39:27.658Z,22.04
2018-06-01T15:41:54.373Z,21.83
2018-06-01T15:44:20.990Z,21.75
2018-06-01T15:46:47.669Z,21.76
2018-06-01T15:49:15.061Z,21.73
2018-06-01T15:51:41.678Z,21.70
2018-06-01T15:54:09.221Z,21.65
2018-06-01T15:56:35.893Z,21.71
2018-06-01T15:59:03.241Z,21.66
2018-06-01T16:01:30.634Z,21.50
2018-06-01T16:03:57.271Z,21.50
2018-06-01T16:06:23.971Z,21.44
2018-06-01T16:08:51.543Z,21.40
2018-06-01T16:11:18.922Z,21.40
2018-06-01T16:13:45.599Z,21.42
2018-06-01T16:16:12.596Z,21.42
2018-06-01T16:18:39.249Z,21.31
2018-06-01T16:21:05.892Z,21.27
2018-06-01T16:23:32.525Z,21.30
2018-06-01T16:25:59.200Z,21.27
2018-06-01T16:28:26.636Z,21.20
2018-06-01T16:30:53.458Z,21.21
2018-06-01T16:33:20.130Z,21.04
2018-06-01T16:35:46.773Z,21.06
2018-06-01T16:38:13.409Z,21.07
2018-06-01T16:40:40.088Z,21.01
2018-06-01T16:43:07.448Z,20.99
2018-06-01T16:45:34.822Z,21.02
2018-06-01T16:48:01.467Z,20.96
2018-06-01T16:50:28.027Z,20.89
2018-06-01T16:52:54.700Z,20.91
2018-06-01T16:55:22.060Z,20.90
2018-06-01T16:57:49.413Z,20.95
2018-06-01T17:00:16.804Z,20.83
2018-06-01T17:02:43.487Z,20.78
2018-06-01T17:05:10.143Z,20.84
2018-06-01T17:07:37.473Z,20.80
2018-06-01T17:10:04.221Z,20.73
2018-06-01T17:12:30.987Z,20.64
2018-06-01T17:14:58.452Z,20.57
2018-06-01T17:17:25.800Z,20.58
2018-06-01T17:19:53.154Z,20.60
2018-06-01T17:22:20.520Z,20.64
2018-06-01T17:24:47.909Z,20.48
2018-06-01T17:27:14.536Z,20.46
2018-06-01T17:29:41.183Z,20.42
2018-06-01T17:32:07.842Z,20.51
2018-06-01T17:34:34.468Z,20.54
2018-06-01T17:37:01.072Z,20.54
2018-06-01T17:39:28.435Z,20.42
2018-06-01T17:41:55.113Z,20.48
2018-06-01T17:44:21.727Z,20.57
2018-06-01T17:46:48.386Z,20.49
2018-06-01T17:49:15.141Z,20.56
2018-06-01T17:51:41.817Z,20.43
2018-06-01T17:54:09.189Z,20.40
2018-06-01T17:56:42.904Z,20.56
2018-06-01T17:59:09.667Z,20.53
2018-06-01T18:01:36.317Z,20.67
2018-06-01T18:04:02.934Z,20.56
2018-06-01T18:06:29.609Z,20.59
2018-06-01T18:08:56.315Z,20.59
2018-06-01T18:11:22.967Z,20.57
2018-06-01T18:13:49.572Z,20.61
2018-06-01T18:16:16.257Z,20.45
2018-06-01T18:18:42.867Z,20.48
2018-06-01T18:21:09.472Z,20.51
2018-06-01T18:23:36.821Z,20.49
2018-06-01T18:26:04.194Z,20.59
2018-06-01T18:28:30.872Z,20.45
2018-06-01T18:30:57.513Z,20.44
2018-06-01T18:33:24.100Z,20.43
2018-06-01T18:35:51.462Z,20.43
2018-06-01T18:38:18.118Z,20.42
2018-06-01T18:40:44.720Z,20.36
2018-06-01T18:43:12.139Z,20.35
2018-06-01T18:45:38.829Z,20.32
2018-06-01T18:48:06.390Z,20.19
2018-06-01T18:50:32.987Z,20.24
2018-06-01T18:52:59.616Z,20.22
2018-06-01T18:55:26.432Z,20.35
2018-06-01T18:57:53.078Z,20.21
2018-06-01T19:00:19.804Z,20.14
2018-06-01T19:02:46.419Z,20.23
2018-06-01T19:05:13.793Z,20.28
2018-06-01T19:07:40.443Z,20.20
2018-06-01T19:10:07.182Z,20.10
2018-06-01T19:12:33.795Z,20.14
2018-06-01T19:15:01.179Z,20.07
2018-06-01T19:17:27.841Z,20.09
2018-06-01T19:19:54.633Z,20.08
2018-06-01T19:22:22.014Z,20.07
2018-06-01T19:24:48.637Z,19.97
2018-06-01T19:27:15.462Z,19.99
2018-06-01T19:29:42.838Z,20.01
2018-06-01T19:32:09.437Z,20.02
2018-06-01T19:34:36.117Z,20.00
2018-06-01T19:37:02.764Z,20.04
2018-06-01T19:39:29.400Z,20.11
2018-06-01T19:41:56.090Z,20.08
2018-06-01T19:44:22.751Z,20.07
2018-06-01T19:46:50.097Z,20.04
2018-06-01T19:49:16.719Z,20.03
2018-06-01T19:51:43.306Z,20.06
2018-06-01T19:54:09.956Z,20.13
2018-06-01T19:56:36.637Z,20.12
2018-06-01T19:59:03.306Z,20.06
2018-06-01T20:01:30.020Z,20.07
2018-06-01T20:03:56.713Z,20.09
2018-06-01T20:06:23.370Z,20.06
2018-06-01T20:08:49.995Z,20.12
2018-06-01T20:11:16.621Z,20.16
2018-06-01T20:13:43.396Z,20.14
2018-06-01T20:16:10.119Z,20.15
2018-06-01T20:18:36.731Z,19.98
2018-06-01T20:21:03.425Z,20.03
2018-06-01T20:23:30.066Z,20.01
2018-06-01T20:25:58.247Z,20.07
2018-06-01T20:28:26.342Z,19.95
2018-06-01T20:30:53.711Z,19.88
2018-06-01T20:33:20.540Z,19.99
2018-06-01T20:35:48.086Z,19.97
2018-06-01T20:38:14.762Z,20.02
2018-06-01T20:40:41.422Z,20.02
2018-06-01T20:43:08.125Z,19.97
2018-06-01T20:45:34.837Z,19.94
2018-06-01T20:48:01.668Z,19.97
2018-06-01T20:50:28.296Z,19.93
2018-06-01T20:52:54.915Z,19.96
2018-06-01T20:55:21.597Z,19.92
2018-06-01T20:57:48.237Z,19.88
2018-06-01T21:00:14.829Z,19.95
2018-06-01T21:02:41.452Z,19.87
2018-06-01T21:05:08.091Z,19.89
2018-06-01T21:07:34.706Z,19.94
2018-06-01T21:10:02.085Z,19.89
2018-06-01T21:12:28.842Z,19.92
2018-06-01T21:14:55.524Z,19.99
2018-06-01T21:17:22.152Z,19.96
2018-06-01T21:19:48.787Z,19.94
2018-06-01T21:22:15.432Z,19.92
2018-06-01T21:24:42.051Z,19.93
2018-06-01T21:27:09.149Z,19.94
2018-06-01T21:29:36.475Z,19.90
2018-06-01T21:32:03.288Z,19.88
2018-06-01T21:34:29.908Z,19.85
2018-06-01T21:36:56.507Z,19.84
2018-06-01T21:39:23.852Z,19.89
2018-06-01T21:41:51.209Z,19.86
2018-06-01T21:44:17.863Z,19.87
2018-06-01T21:46:45.208Z,19.86
2018-06-01T21:49:11.834Z,19.83
2018-06-01T21:51:38.545Z,19.81
2018-06-01T21:54:05.182Z,19.86
2018-06-01T21:56:31.848Z,19.83
2018-06-01T21:58:58.655Z,19.81
2018-06-01T22:01:25.279Z,19.75
2018-06-01T22:03:51.930Z,19.83
2018-06-01T22:06:18.567Z,19.80
2018-06-01T22:08:45.179Z,19.81
2018-06-01T22:11:12.562Z,19.79
2018-06-01T22:13:39.264Z,19.74
2018-06-01T22:16:06.805Z,19.71
2018-06-01T22:18:34.177Z,19.73
2018-06-01T22:21:01.527Z,19.72
2018-06-01T22:23:28.394Z,19.76
2018-06-01T22:25:55.015Z,19.78
2018-06-01T22:28:22.429Z,19.81
2018-06-01T22:30:49.173Z,19.78
2018-06-01T22:33:15.769Z,19.72
2018-06-01T22:35:42.410Z,19.71
2018-06-01T22:38:09.110Z,19.68
2018-06-01T22:40:35.795Z,19.68
2018-06-01T22:43:02.413Z,19.70
2018-06-01T22:45:29.787Z,19.64
2018-06-01T22:47:56.376Z,19.64
2018-06-01T22:50:22.999Z,19.62
2018-06-01T22:52:49.722Z,19.62
2018-06-01T22:55:17.127Z,19.61
2018-06-01T22:57:43.716Z,19.60
2018-06-01T23:00:10.381Z,19.60
2018-06-01T23:02:37.040Z,19.57
2018-06-01T23:05:03.631Z,19.54
2018-06-01T23:07:30.419Z,19.53
2018-06-01T23:09:57.029Z,19.55
2018-06-01T23:12:23.667Z,19.59
2018-06-01T23:14:50.245Z,19.64
2018-06-01T23:17:17.612Z,19.63
2018-06-01T23:19:44.979Z,19.62
2018-06-01T23:22:11.596Z,19.67
2018-06-01T23:24:38.954Z,19.64
2018-06-01T23:27:06.297Z,19.57
2018-06-01T23:29:33.750Z,19.57
2018-06-01T23:32:00.417Z,19.53
2018-06-01T23:34:27.086Z,19.51
2018-06-01T23:36:53.688Z,19.43
2018-06-01T23:39:21.112Z,19.42
2018-06-01T23:41:47.725Z,19.47
2018-06-01T23:44:14.384Z,19.44
2018-06-01T23:46:41.029Z,19.40
2018-06-01T23:49:07.757Z,19.44
2018-06-01T23:51:34.432Z,19.49
2018-06-01T23:54:01.828Z,19.40
2018-06-01T23:56:28.441Z,19.32
2018-06-01T23:58:55.154Z,19.41
